Time;durP1;ratioP1;P1;durP2;ratioP2;P2;SDS_P1;SDS_P2;PMS_P1;PMS_P2;Temp;Humidity;BMP_temperature;BMP_pressure;BME280_temperature;BME280_humidity;BME280_pressure;Samples;Min_cycle;Max_cycle;Signal;HPM_P1;HPM_P2
2022/12/11 00:01:53;;;;;;;48.20;30.20;;;;;;;;;;5077886;28;20235;-91
2022/12/11 00:04:21;;;;;;;51.53;32.73;;;;;;;;;;5077237;28;20233;-92
2022/12/11 00:06:49;;;;;;;52.37;30.17;;;;;;;;;;5077723;28;20272;-91
2022/12/11 00:09:18;;;;;;;51.80;29.60;;;;;;;;;;5077454;28;20192;-91
2022/12/11 00:11:46;;;;;;;45.70;28.17;;;;;;;;;;5084108;28;20200;-91
2022/12/11 00:14:15;;;;;;;44.67;27.13;;;;;;;;;;5083330;28;20203;-92
2022/12/11 00:16:42;;;;;;;44.57;26.97;;;;;;;;;;5096443;28;20180;-91
2022/12/11 00:19:10;;;;;;;44.33;27.13;;;;;;;;;;5099349;28;20199;-92
2022/12/11 00:21:37;;;;;;;47.37;29.87;;;;;;;;;;5096657;28;20206;-91
2022/12/11 00:24:05;;;;;;;46.80;28.50;;;;;;;;;;5089068;28;20229;-91
2022/12/11 00:26:34;;;;;;;48.20;31.40;;;;;;;;;;5094345;28;20203;-92
2022/12/11 00:29:02;;;;;;;48.53;31.53;;;;;;;;;;5082105;28;20220;-92
2022/12/11 00:31:30;;;;;;;48.20;30.80;;;;;;;;;;5078755;28;20199;-91
2022/12/11 00:33:58;;;;;;;44.27;28.03;;;;;;;;;;5089672;28;20206;-91
2022/12/11 00:36:43;;;;;;;46.47;29.40;;;;;;;;;;5098468;28;20332;-91
2022/12/11 00:39:11;;;;;;;50.93;30.50;;;;;;;;;;5077769;28;20329;-92
2022/12/11 00:41:40;;;;;;;56.17;33.13;;;;;;;;;;5076891;28;20207;-92
2022/12/11 00:44:07;;;;;;;57.63;33.97;;;;;;;;;;5090446;28;20203;-92
2022/12/11 00:46:35;;;;;;;51.10;31.70;;;;;;;;;;5095425;28;20203;-91
2022/12/11 00:49:03;;;;;;;51.90;32.00;;;;;;;;;;5077445;28;20191;-92
2022/12/11 00:51:30;;;;;;;52.60;32.23;;;;;;;;;;5082974;28;20200;-92
2022/12/11 00:53:58;;;;;;;49.87;30.43;;;;;;;;;;5086769;28;20210;-90
2022/12/11 00:56:25;;;;;;;51.90;31.50;;;;;;;;;;5081821;28;20198;-92
2022/12/11 00:58:54;;;;;;;46.30;29.10;;;;;;;;;;5095993;28;20739;-90
2022/12/11 01:01:23;;;;;;;45.60;27.90;;;;;;;;;;5079006;28;20289;-90
2022/12/11 01:03:51;;;;;;;47.47;28.60;;;;;;;;;;5084841;28;20259;-93
2022/12/11 01:06:20;;;;;;;47.47;27.77;;;;;;;;;;5079402;28;20208;-90
2022/12/11 01:10:22;;;;;;;43.90;27.70;;;;;;;;;;5080828;28;20193;-92
2022/12/11 01:11:34;;;;;;;50.03;28.90;;;;;;;;;;5081462;28;20199;-92
2022/12/11 01:14:04;;;;;;;47.13;28.43;;;;;;;;;;5085245;28;20194;-92
2022/12/11 01:16:31;;;;;;;48.60;27.93;;;;;;;;;;5077292;28;20212;-93
2022/12/11 01:18:59;;;;;;;48.47;27.97;;;;;;;;;;5076937;28;20219;-92
2022/12/11 01:21:27;;;;;;;48.53;27.77;;;;;;;;;;5075518;28;20192;-91
2022/12/11 01:23:54;;;;;;;48.03;27.57;;;;;;;;;;5076343;28;20609;-92
2022/12/11 01:26:22;;;;;;;48.63;28.73;;;;;;;;;;5076190;28;20657;-92
2022/12/11 01:28:50;;;;;;;47.77;27.97;;;;;;;;;;5075518;28;20215;-92
2022/12/11 01:31:23;;;;;;;47.17;28.10;;;;;;;;;;5076358;28;20663;-93
2022/12/11 01:33:50;;;;;;;47.50;26.90;;;;;;;;;;5081095;28;20217;-93
2022/12/11 01:36:19;;;;;;;45.70;28.17;;;;;;;;;;5083146;28;20203;-93
2022/12/11 01:38:48;;;;;;;46.23;27.63;;;;;;;;;;5097558;28;20225;-93
2022/12/11 01:41:16;;;;;;;45.80;26.87;;;;;;;;;;5096662;28;20215;-93
2022/12/11 01:44:07;;;;;;;48.60;29.23;;;;;;;;;;5093492;28;20207;-93
2022/12/11 01:46:37;;;;;;;47.47;27.50;;;;;;;;;;5082243;28;20200;-91
2022/12/11 01:49:09;;;;;;;50.17;28.40;;;;;;;;;;5094473;28;20196;-93
2022/12/11 01:51:38;;;;;;;46.57;27.40;;;;;;;;;;5094288;28;20251;-93
2022/12/11 01:54:08;;;;;;;51.10;27.70;;;;;;;;;;5076802;28;20268;-93
2022/12/11 01:56:39;;;;;;;47.33;28.07;;;;;;;;;;5084560;28;20204;-93
2022/12/11 01:59:07;;;;;;;43.83;26.60;;;;;;;;;;5077081;28;20588;-93
2022/12/11 02:01:38;;;;;;;46.57;27.00;;;;;;;;;;5076043;28;20225;-93
2022/12/11 02:04:07;;;;;;;46.07;26.17;;;;;;;;;;5086935;28;20204;-93
2022/12/11 02:06:37;;;;;;;63.33;35.00;;;;;;;;;;5084397;28;20219;-93
2022/12/11 02:09:06;;;;;;;55.63;32.10;;;;;;;;;;5078352;28;20212;-93
2022/12/11 02:11:39;;;;;;;50.87;29.10;;;;;;;;;;5084015;28;20196;-93
2022/12/11 02:14:13;;;;;;;49.20;27.07;;;;;;;;;;5084311;28;20217;-93
2022/12/11 02:16:47;;;;;;;40.73;24.73;;;;;;;;;;5082683;28;20199;-94
2022/12/11 02:19:20;;;;;;;41.43;23.90;;;;;;;;;;5078452;28;20232;-93
2022/12/11 02:21:49;;;;;;;40.10;23.77;;;;;;;;;;5076115;28;20201;-93
2022/12/11 02:24:28;;;;;;;41.47;24.70;;;;;;;;;;5083221;28;20608;-92
2022/12/11 02:27:15;;;;;;;38.43;23.73;;;;;;;;;;5082777;28;20205;-93
2022/12/11 02:29:48;;;;;;;41.27;23.57;;;;;;;;;;5096135;28;20215;-94
2022/12/11 02:32:17;;;;;;;41.20;24.47;;;;;;;;;;5095670;28;20207;-93
2022/12/11 02:34:48;;;;;;;43.53;24.43;;;;;;;;;;5077615;28;20201;-93
2022/12/11 02:37:17;;;;;;;43.47;25.53;;;;;;;;;;5079352;28;20694;-93
2022/12/11 02:39:46;;;;;;;44.73;25.47;;;;;;;;;;5088245;28;20221;-94
2022/12/11 02:42:16;;;;;;;45.33;25.10;;;;;;;;;;5080647;28;20209;-93
2022/12/11 02:44:45;;;;;;;41.50;24.03;;;;;;;;;;5079914;28;20190;-93
2022/12/11 02:47:14;;;;;;;42.37;24.60;;;;;;;;;;5095817;28;20711;-94
2022/12/11 02:49:43;;;;;;;39.83;22.87;;;;;;;;;;5084668;28;20207;-93
2022/12/11 02:52:13;;;;;;;41.87;23.77;;;;;;;;;;5086745;28;20212;-94
2022/12/11 02:54:42;;;;;;;44.90;23.87;;;;;;;;;;5096145;28;20211;-94
2022/12/11 02:57:10;;;;;;;44.07;24.03;;;;;;;;;;5096108;28;20211;-93
2022/12/11 02:59:40;;;;;;;41.13;23.80;;;;;;;;;;5081811;28;20215;-94
2022/12/11 03:02:09;;;;;;;43.57;24.33;;;;;;;;;;5075658;28;20235;-94
2022/12/11 03:04:42;;;;;;;42.53;23.07;;;;;;;;;;5075632;28;20207;-93
2022/12/11 03:07:12;;;;;;;42.50;23.90;;;;;;;;;;5080473;28;20737;-93
2022/12/11 03:09:42;;;;;;;40.10;22.73;;;;;;;;;;5088668;28;20256;-94
2022/12/11 03:12:11;;;;;;;41.13;22.87;;;;;;;;;;5085696;28;20203;-84
2022/12/11 03:14:40;;;;;;;41.97;23.50;;;;;;;;;;5085390;28;20610;-84
2022/12/11 03:17:13;;;;;;;37.80;22.70;;;;;;;;;;5091305;28;20194;-84
2022/12/11 03:19:42;;;;;;;39.80;22.40;;;;;;;;;;5092254;28;20223;-84
2022/12/11 03:22:11;;;;;;;37.83;21.83;;;;;;;;;;5074666;28;20205;-85
2022/12/11 03:24:40;;;;;;;37.93;22.17;;;;;;;;;;5086132;28;20204;-84
2022/12/11 03:27:09;;;;;;;35.07;20.60;;;;;;;;;;5080314;28;20622;-84
2022/12/11 03:29:38;;;;;;;36.23;20.77;;;;;;;;;;5084902;28;20628;-84
2022/12/11 03:32:08;;;;;;;36.90;20.83;;;;;;;;;;5072741;28;20662;-84
2022/12/11 03:34:40;;;;;;;33.77;19.63;;;;;;;;;;5085606;28;20195;-84
2022/12/11 03:37:14;;;;;;;32.93;19.40;;;;;;;;;;5088983;28;20216;-83
2022/12/11 03:39:43;;;;;;;36.87;20.47;;;;;;;;;;5082873;28;20221;-84
2022/12/11 03:42:12;;;;;;;35.57;20.17;;;;;;;;;;5082619;28;20199;-84
2022/12/11 03:44:40;;;;;;;36.07;20.00;;;;;;;;;;5082471;28;20676;-84
2022/12/11 03:47:08;;;;;;;37.47;20.30;;;;;;;;;;5083919;28;20206;-84
2022/12/11 03:49:42;;;;;;;36.83;20.07;;;;;;;;;;5081008;28;20195;-84
2022/12/11 03:52:10;;;;;;;35.47;19.60;;;;;;;;;;5080892;28;20211;-84
2022/12/11 03:54:38;;;;;;;35.83;19.60;;;;;;;;;;5087605;28;20204;-83
2022/12/11 03:57:06;;;;;;;35.70;19.53;;;;;;;;;;5073692;28;20204;-84
2022/12/11 03:59:33;;;;;;;34.10;18.63;;;;;;;;;;5081116;28;20215;-84
2022/12/11 04:02:01;;;;;;;34.50;19.17;;;;;;;;;;5082090;28;20232;-84
2022/12/11 04:04:28;;;;;;;37.07;20.40;;;;;;;;;;5072004;28;20211;-84
2022/12/11 04:06:57;;;;;;;37.13;19.90;;;;;;;;;;5072199;28;20243;-84
2022/12/11 04:09:24;;;;;;;37.33;20.03;;;;;;;;;;5072426;28;20194;-83
2022/12/11 04:11:51;;;;;;;37.00;18.53;;;;;;;;;;5072178;28;20265;-84
2022/12/11 04:17:03;;;;;;;37.47;18.33;;;;;;;;;;5077368;28;20226;-83
2022/12/11 04:25:06;;;;;;;35.63;19.47;;;;;;;;;;5070682;28;20211;-85
2022/12/11 04:27:51;;;;;;;36.33;20.10;;;;;;;;;;5070967;28;20275;-84
2022/12/11 04:30:20;;;;;;;36.27;19.47;;;;;;;;;;5070603;28;20261;-84
2022/12/11 04:32:48;;;;;;;37.37;20.13;;;;;;;;;;5072328;28;20208;-84
2022/12/11 04:35:16;;;;;;;35.40;19.43;;;;;;;;;;5071566;28;20251;-84
2022/12/11 04:37:45;;;;;;;36.93;19.63;;;;;;;;;;5073287;28;20205;-84
2022/12/11 04:40:14;;;;;;;37.30;19.40;;;;;;;;;;5074480;28;20274;-84
2022/12/11 04:42:41;;;;;;;36.37;19.97;;;;;;;;;;5078437;28;20244;-84
2022/12/11 04:45:09;;;;;;;40.00;21.87;;;;;;;;;;5091075;28;20205;-84
2022/12/11 04:47:39;;;;;;;38.37;21.33;;;;;;;;;;5094226;28;20579;-84
2022/12/11 04:50:08;;;;;;;41.57;21.87;;;;;;;;;;5087628;28;20278;-84
2022/12/11 04:52:36;;;;;;;36.93;19.37;;;;;;;;;;5087794;28;20700;-84
2022/12/11 04:55:06;;;;;;;37.30;20.20;;;;;;;;;;5087848;28;20623;-84
2022/12/11 04:57:33;;;;;;;38.10;20.27;;;;;;;;;;5078248;28;20205;-83
2022/12/11 05:00:01;;;;;;;37.37;19.80;;;;;;;;;;5090579;28;20224;-84
2022/12/11 05:02:28;;;;;;;37.10;19.17;;;;;;;;;;5085427;28;20249;-84
2022/12/11 05:04:55;;;;;;;34.90;19.00;;;;;;;;;;5088353;28;20245;-84
2022/12/11 05:07:23;;;;;;;37.60;18.97;;;;;;;;;;5090555;28;20201;-83
2022/12/11 05:09:50;;;;;;;36.13;19.40;;;;;;;;;;5089280;28;20187;-84
2022/12/11 05:12:19;;;;;;;34.03;18.37;;;;;;;;;;5079493;28;20196;-84
2022/12/11 05:14:48;;;;;;;34.53;18.93;;;;;;;;;;5086912;28;20262;-83
2022/12/11 05:17:16;;;;;;;33.87;18.60;;;;;;;;;;5091215;28;20208;-83
2022/12/11 05:19:43;;;;;;;38.53;20.30;;;;;;;;;;5080485;28;20266;-83
2022/12/11 05:22:10;;;;;;;36.87;19.93;;;;;;;;;;5089519;28;20236;-83
2022/12/11 05:24:37;;;;;;;39.47;19.70;;;;;;;;;;5083809;28;20210;-83
2022/12/11 05:27:05;;;;;;;38.73;20.20;;;;;;;;;;5084406;28;20260;-83
2022/12/11 05:29:34;;;;;;;40.10;20.30;;;;;;;;;;5090478;28;20213;-83
2022/12/11 05:32:01;;;;;;;42.63;21.47;;;;;;;;;;5079120;28;20204;-83
2022/12/11 05:34:28;;;;;;;40.50;21.37;;;;;;;;;;5093761;28;20206;-83
2022/12/11 05:36:55;;;;;;;42.17;21.43;;;;;;;;;;5082097;28;20669;-83
2022/12/11 05:39:23;;;;;;;37.27;20.73;;;;;;;;;;5090336;28;20599;-83
2022/12/11 05:41:50;;;;;;;36.67;19.17;;;;;;;;;;5079701;28;20623;-83
2022/12/11 05:44:17;;;;;;;39.00;21.20;;;;;;;;;;5084547;28;20229;-83
2022/12/11 05:46:48;;;;;;;45.00;20.87;;;;;;;;;;5075349;28;20219;-83
2022/12/11 05:49:15;;;;;;;39.27;20.80;;;;;;;;;;5088281;28;20202;-83
2022/12/11 05:51:43;;;;;;;39.27;20.43;;;;;;;;;;5081585;28;20246;-83
2022/12/11 05:54:10;;;;;;;39.87;20.47;;;;;;;;;;5075593;28;20669;-83
2022/12/11 05:56:38;;;;;;;44.87;22.13;;;;;;;;;;5083403;28;20205;-83
2022/12/11 05:59:06;;;;;;;39.87;20.30;;;;;;;;;;5080865;28;20224;-83
2022/12/11 06:01:34;;;;;;;43.47;21.87;;;;;;;;;;5085026;28;20274;-83
2022/12/11 06:04:04;;;;;;;40.63;21.30;;;;;;;;;;5090789;28;20201;-81
2022/12/11 06:06:32;;;;;;;43.97;21.93;;;;;;;;;;5080793;28;20206;-83
2022/12/11 06:08:59;;;;;;;43.07;21.67;;;;;;;;;;5079469;28;20217;-83
2022/12/11 06:11:27;;;;;;;41.93;21.90;;;;;;;;;;5090156;28;20201;-83
2022/12/11 06:14:10;;;;;;;45.90;22.33;;;;;;;;;;5081927;28;20201;-83
2022/12/11 06:16:41;;;;;;;48.37;22.03;;;;;;;;;;5094101;28;20201;-83
2022/12/11 06:19:17;;;;;;;44.40;22.37;;;;;;;;;;5089404;28;20202;-83
2022/12/11 06:21:44;;;;;;;47.67;22.43;;;;;;;;;;5092433;28;20254;-84
2022/12/11 06:24:11;;;;;;;47.90;22.63;;;;;;;;;;5091353;28;20657;-83
2022/12/11 06:26:42;;;;;;;49.83;22.70;;;;;;;;;;5083261;28;20250;-84
2022/12/11 06:29:09;;;;;;;44.53;22.47;;;;;;;;;;5081104;28;20217;-84
2022/12/11 06:31:46;;;;;;;46.23;23.23;;;;;;;;;;5081359;28;20202;-84
2022/12/11 06:34:13;;;;;;;46.93;22.57;;;;;;;;;;5081102;28;20255;-84
2022/12/11 06:36:42;;;;;;;47.73;22.73;;;;;;;;;;5078419;28;20196;-83
2022/12/11 06:39:09;;;;;;;42.20;21.63;;;;;;;;;;5080054;28;20258;-83
2022/12/11 06:41:42;;;;;;;45.63;23.17;;;;;;;;;;5073315;28;20202;-83
2022/12/11 06:44:26;;;;;;;45.77;23.17;;;;;;;;;;5079434;28;20675;-84
2022/12/11 06:46:57;;;;;;;42.50;22.27;;;;;;;;;;5080737;28;20280;-84
2022/12/11 06:49:30;;;;;;;46.27;22.97;;;;;;;;;;5081789;28;20201;-83
2022/12/11 06:54:57;;;;;;;43.00;21.67;;;;;;;;;;5072918;28;20201;-83
2022/12/11 06:57:24;;;;;;;45.53;23.23;;;;;;;;;;5084045;28;20258;-82
2022/12/11 06:59:51;;;;;;;48.07;22.43;;;;;;;;;;5090397;28;20794;-82
2022/12/11 07:02:20;;;;;;;47.40;23.23;;;;;;;;;;5092807;28;20236;-83
2022/12/11 07:04:47;;;;;;;45.90;22.40;;;;;;;;;;5089936;28;20209;-82
2022/12/11 07:07:18;;;;;;;46.63;23.53;;;;;;;;;;5083837;28;20198;-83
2022/12/11 07:09:46;;;;;;;43.80;22.37;;;;;;;;;;5083127;28;20200;-82
2022/12/11 07:12:17;;;;;;;47.20;23.03;;;;;;;;;;5080170;28;20202;-83
2022/12/11 07:14:45;;;;;;;48.30;22.83;;;;;;;;;;5083382;28;20194;-83
2022/12/11 07:17:12;;;;;;;50.00;22.70;;;;;;;;;;5080970;28;20198;-83
2022/12/11 07:19:46;;;;;;;43.73;21.63;;;;;;;;;;5080121;28;20709;-82
2022/12/11 07:22:17;;;;;;;42.83;22.40;;;;;;;;;;5082156;28;20268;-83
2022/12/11 07:24:44;;;;;;;45.23;21.47;;;;;;;;;;5081976;28;20576;-83
2022/12/11 07:27:18;;;;;;;44.80;22.60;;;;;;;;;;5080318;28;20625;-83
2022/12/11 07:29:59;;;;;;;45.10;23.10;;;;;;;;;;5083582;28;20217;-83
2022/12/11 07:32:26;;;;;;;46.40;22.37;;;;;;;;;;5080558;28;20199;-82
2022/12/11 07:34:53;;;;;;;45.47;21.70;;;;;;;;;;5085855;28;20205;-83
2022/12/11 07:40:04;;;;;;;43.43;22.23;;;;;;;;;;5072088;28;20720;-83
2022/12/11 07:42:31;;;;;;;46.10;23.07;;;;;;;;;;5085723;28;20666;-84
2022/12/11 07:44:58;;;;;;;46.03;22.53;;;;;;;;;;5078110;28;20251;-83
2022/12/11 07:47:26;;;;;;;42.83;22.30;;;;;;;;;;5090114;28;20271;-83
2022/12/11 07:49:53;;;;;;;46.97;23.07;;;;;;;;;;5087168;28;20265;-83
2022/12/11 07:52:20;;;;;;;42.73;22.50;;;;;;;;;;5080592;28;20260;-83
2022/12/11 07:54:49;;;;;;;46.00;22.53;;;;;;;;;;5080555;28;20197;-84
2022/12/11 07:57:29;;;;;;;49.60;22.57;;;;;;;;;;5089359;28;20231;-83
2022/12/11 07:59:57;;;;;;;48.77;24.17;;;;;;;;;;5092760;28;20228;-83
2022/12/11 08:02:37;;;;;;;48.37;24.10;;;;;;;;;;5075423;28;20657;-84
2022/12/11 08:05:05;;;;;;;57.07;25.50;;;;;;;;;;5083513;28;20669;-84
2022/12/11 08:07:34;;;;;;;47.77;24.60;;;;;;;;;;5084995;28;20669;-84
2022/12/11 08:10:06;;;;;;;50.37;24.10;;;;;;;;;;5086281;28;20198;-84
2022/12/11 08:12:36;;;;;;;49.67;23.57;;;;;;;;;;5080619;28;20218;-83
2022/12/11 08:15:03;;;;;;;50.73;23.07;;;;;;;;;;5086450;28;20662;-83
2022/12/11 08:17:35;;;;;;;48.33;24.10;;;;;;;;;;5084288;28;20213;-81
2022/12/11 08:20:07;;;;;;;49.70;24.90;;;;;;;;;;5084886;28;20717;-83
2022/12/11 08:22:35;;;;;;;53.93;25.20;;;;;;;;;;5091808;28;20201;-82
2022/12/11 08:25:02;;;;;;;48.20;22.70;;;;;;;;;;5088097;28;20719;-82
2022/12/11 08:27:31;;;;;;;54.17;25.23;;;;;;;;;;5086918;28;20202;-82
2022/12/11 08:29:59;;;;;;;53.50;24.47;;;;;;;;;;5074531;28;20215;-82
2022/12/11 08:32:26;;;;;;;55.10;25.43;;;;;;;;;;5073238;28;20259;-82
2022/12/11 08:34:54;;;;;;;51.70;23.83;;;;;;;;;;5073982;28;20225;-83
2022/12/11 08:37:21;;;;;;;51.63;24.13;;;;;;;;;;5074151;28;20729;-82
2022/12/11 08:39:54;;;;;;;51.73;22.57;;;;;;;;;;5074597;28;20203;-82
2022/12/11 08:42:21;;;;;;;55.27;24.93;;;;;;;;;;5082756;28;20580;-81
2022/12/11 08:44:50;;;;;;;52.97;23.30;;;;;;;;;;5088859;28;20198;-80
2022/12/11 08:47:17;;;;;;;54.63;24.90;;;;;;;;;;5093939;28;20214;-81
2022/12/11 08:49:45;;;;;;;50.23;23.60;;;;;;;;;;5085891;28;20195;-80
2022/12/11 08:52:12;;;;;;;50.67;25.70;;;;;;;;;;5089965;28;20292;-81
2022/12/11 08:54:39;;;;;;;52.60;24.83;;;;;;;;;;5082014;28;20206;-80
2022/12/11 08:57:07;;;;;;;55.10;24.13;;;;;;;;;;5076751;28;20762;-80
2022/12/11 08:59:34;;;;;;;56.43;25.93;;;;;;;;;;5084122;28;20201;-80
2022/12/11 09:02:03;;;;;;;44.83;20.97;;;;;;;;;;5076997;28;20257;-80
2022/12/11 09:04:30;;;;;;;53.73;25.33;;;;;;;;;;5083849;28;20191;-80
2022/12/11 09:06:57;;;;;;;57.10;26.50;;;;;;;;;;5093673;28;20249;-80
2022/12/11 09:09:25;;;;;;;56.37;26.10;;;;;;;;;;5078262;28;20227;-80
2022/12/11 09:11:52;;;;;;;52.03;26.73;;;;;;;;;;5089648;28;20259;-80
2022/12/11 09:14:20;;;;;;;53.73;26.20;;;;;;;;;;5094025;28;20241;-80
2022/12/11 09:16:47;;;;;;;57.33;25.57;;;;;;;;;;5081425;28;20208;-80
2022/12/11 09:19:16;;;;;;;57.67;26.90;;;;;;;;;;5075845;28;20227;-80
2022/12/11 09:21:44;;;;;;;54.37;27.47;;;;;;;;;;5082400;28;20710;-80
2022/12/11 09:24:12;;;;;;;57.20;27.83;;;;;;;;;;5074011;28;20206;-80
2022/12/11 09:26:39;;;;;;;59.00;28.00;;;;;;;;;;5079982;28;20250;-81
2022/12/11 09:29:06;;;;;;;54.73;26.53;;;;;;;;;;5081506;28;20250;-80
2022/12/11 09:31:35;;;;;;;53.33;26.00;;;;;;;;;;5082349;28;20571;-81
2022/12/11 09:34:03;;;;;;;51.20;26.37;;;;;;;;;;5084234;28;20261;-80
2022/12/11 09:36:32;;;;;;;52.37;26.43;;;;;;;;;;5081697;28;20550;-80
2022/12/11 09:39:00;;;;;;;48.60;24.90;;;;;;;;;;5076464;28;20234;-80
2022/12/11 09:41:35;;;;;;;46.87;23.63;;;;;;;;;;5084416;28;20246;-80
2022/12/11 09:44:06;;;;;;;49.57;24.53;;;;;;;;;;5081831;28;20198;-79
2022/12/11 09:46:34;;;;;;;52.80;26.33;;;;;;;;;;5084500;28;20683;-80
2022/12/11 09:49:02;;;;;;;44.90;23.63;;;;;;;;;;5084796;28;20234;-79
2022/12/11 09:51:40;;;;;;;46.43;24.50;;;;;;;;;;5083060;28;20241;-80
2022/12/11 09:54:08;;;;;;;49.10;25.10;;;;;;;;;;5085228;28;20202;-79
2022/12/11 09:56:37;;;;;;;48.03;25.27;;;;;;;;;;5086507;28;20260;-78
2022/12/11 09:59:09;;;;;;;51.83;25.33;;;;;;;;;;5081749;28;20199;-79
2022/12/11 10:01:41;;;;;;;50.30;25.70;;;;;;;;;;5079246;28;20223;-79
2022/12/11 10:04:19;;;;;;;48.33;26.10;;;;;;;;;;5082223;28;20194;-79
2022/12/11 10:06:49;;;;;;;46.97;25.33;;;;;;;;;;5080773;28;20198;-79
2022/12/11 10:09:19;;;;;;;45.57;25.53;;;;;;;;;;5090768;28;20267;-80
2022/12/11 10:11:52;;;;;;;52.03;25.87;;;;;;;;;;5079129;28;20196;-80
2022/12/11 10:14:23;;;;;;;43.97;24.03;;;;;;;;;;5077107;28;20238;-81
2022/12/11 10:16:52;;;;;;;45.37;24.00;;;;;;;;;;5090936;28;20218;-81
2022/12/11 10:19:20;;;;;;;53.83;25.07;;;;;;;;;;5090164;28;20204;-80
2022/12/11 10:21:50;;;;;;;50.20;25.90;;;;;;;;;;5076000;28;20301;-81
2022/12/11 10:24:21;;;;;;;49.37;25.97;;;;;;;;;;5088070;28;20195;-80
2022/12/11 10:26:48;;;;;;;47.07;27.23;;;;;;;;;;5071475;28;20229;-80
2022/12/11 10:29:16;;;;;;;48.43;26.90;;;;;;;;;;5084505;28;20703;-81
2022/12/11 10:31:47;;;;;;;53.93;28.13;;;;;;;;;;5079943;28;20228;-80
2022/12/11 10:34:19;;;;;;;45.67;25.00;;;;;;;;;;5088536;28;20215;-81
2022/12/11 10:36:46;;;;;;;41.63;22.70;;;;;;;;;;5081644;28;20261;-80
2022/12/11 10:39:16;;;;;;;44.80;25.10;;;;;;;;;;5079155;28;20194;-80
2022/12/11 10:41:44;;;;;;;42.77;23.70;;;;;;;;;;5088814;28;20755;-81
2022/12/11 10:44:16;;;;;;;44.97;24.23;;;;;;;;;;5092024;28;20244;-80
2022/12/11 10:46:44;;;;;;;42.83;23.03;;;;;;;;;;5089280;28;20234;-81
2022/12/11 10:49:21;;;;;;;43.77;23.83;;;;;;;;;;5075716;28;20240;-82
2022/12/11 10:51:48;;;;;;;43.40;23.63;;;;;;;;;;5072652;28;20191;-79
2022/12/11 10:54:27;;;;;;;42.07;23.90;;;;;;;;;;5077724;28;20282;-80
2022/12/11 10:56:55;;;;;;;45.60;24.50;;;;;;;;;;5074643;28;20260;-79
2022/12/11 10:59:24;;;;;;;42.43;24.37;;;;;;;;;;5081918;28;20206;-80
2022/12/11 11:01:52;;;;;;;42.67;23.33;;;;;;;;;;5078442;28;20287;-80
2022/12/11 11:04:25;;;;;;;42.37;22.57;;;;;;;;;;5083826;28;20200;-80
2022/12/11 11:07:01;;;;;;;37.47;19.40;;;;;;;;;;5072426;28;20208;-79
2022/12/11 11:09:31;;;;;;;35.10;21.40;;;;;;;;;;5081178;28;20197;-79
2022/12/11 11:11:59;;;;;;;35.87;21.67;;;;;;;;;;5085635;28;20227;-80
2022/12/11 11:14:26;;;;;;;35.73;20.90;;;;;;;;;;5086553;28;20196;-81
2022/12/11 11:16:55;;;;;;;36.03;19.90;;;;;;;;;;5072312;28;20293;-80
2022/12/11 11:19:24;;;;;;;35.50;20.83;;;;;;;;;;5076245;28;20198;-79
2022/12/11 11:21:52;;;;;;;24.50;14.13;;;;;;;;;;5080928;28;20275;-79
2022/12/11 11:24:25;;;;;;;34.20;19.63;;;;;;;;;;5081970;28;20197;-79
2022/12/11 11:26:54;;;;;;;35.53;20.37;;;;;;;;;;5084417;28;20226;-82
2022/12/11 11:29:26;;;;;;;36.63;20.60;;;;;;;;;;5085449;28;20269;-79
2022/12/11 11:31:53;;;;;;;32.00;19.50;;;;;;;;;;5072442;28;20208;-80
2022/12/11 11:34:21;;;;;;;36.77;20.37;;;;;;;;;;5071782;28;20231;-81
2022/12/11 11:36:56;;;;;;;33.27;19.80;;;;;;;;;;5072153;28;20279;-80
2022/12/11 11:39:26;;;;;;;33.20;19.87;;;;;;;;;;5079620;28;20201;-81
2022/12/11 11:41:59;;;;;;;34.87;18.70;;;;;;;;;;5090969;28;20254;-79
2022/12/11 11:44:29;;;;;;;27.23;17.20;;;;;;;;;;5080338;28;20199;-79
2022/12/11 11:46:59;;;;;;;35.20;18.87;;;;;;;;;;5084559;28;20210;-80
2022/12/11 11:49:33;;;;;;;30.00;17.70;;;;;;;;;;5083394;28;20197;-78
2022/12/11 11:52:02;;;;;;;28.73;17.47;;;;;;;;;;5088283;28;20202;-79
2022/12/11 11:54:32;;;;;;;28.73;17.30;;;;;;;;;;5085695;28;20679;-79
2022/12/11 11:57:04;;;;;;;27.87;17.13;;;;;;;;;;5076131;28;20232;-79
2022/12/11 11:59:34;;;;;;;28.13;17.20;;;;;;;;;;5083892;28;20632;-79
2022/12/11 12:02:01;;;;;;;27.73;16.83;;;;;;;;;;5084179;28;20320;-79
2022/12/11 12:04:35;;;;;;;27.90;16.87;;;;;;;;;;5084958;28;20208;-79
2022/12/11 12:07:17;;;;;;;25.17;16.30;;;;;;;;;;5080029;28;20200;-80
2022/12/11 12:09:50;;;;;;;25.57;16.43;;;;;;;;;;5075722;28;20569;-81
2022/12/11 12:12:23;;;;;;;26.07;16.37;;;;;;;;;;5076056;28;20198;-80
2022/12/11 12:14:57;;;;;;;25.03;15.73;;;;;;;;;;5075780;28;20241;-80
2022/12/11 12:17:27;;;;;;;23.07;15.00;;;;;;;;;;5077814;28;20581;-80
2022/12/11 12:20:00;;;;;;;23.33;14.83;;;;;;;;;;5096191;28;20296;-80
2022/12/11 12:22:34;;;;;;;24.13;14.90;;;;;;;;;;5094217;28;20700;-80
2022/12/11 12:25:06;;;;;;;23.00;14.23;;;;;;;;;;5089663;28;20209;-80
2022/12/11 12:27:38;;;;;;;24.60;15.23;;;;;;;;;;5086864;28;20225;-81
2022/12/11 12:30:10;;;;;;;26.63;15.73;;;;;;;;;;5090661;28;20256;-82
2022/12/11 12:32:42;;;;;;;24.57;14.43;;;;;;;;;;5095401;28;20229;-81
2022/12/11 12:35:15;;;;;;;26.23;14.90;;;;;;;;;;5095894;28;20255;-81
2022/12/11 12:37:49;;;;;;;23.50;14.17;;;;;;;;;;5085098;28;20688;-81
2022/12/11 12:40:20;;;;;;;23.83;14.67;;;;;;;;;;5090516;28;20258;-82
2022/12/11 12:42:53;;;;;;;25.27;15.53;;;;;;;;;;5090490;28;20235;-82
2022/12/11 12:45:26;;;;;;;22.87;14.97;;;;;;;;;;5095524;28;20629;-82
2022/12/11 12:47:53;;;;;;;24.27;15.07;;;;;;;;;;5094562;28;20681;-81
2022/12/11 12:50:22;;;;;;;23.83;15.30;;;;;;;;;;5094270;28;20206;-81
2022/12/11 12:52:49;;;;;;;25.93;14.80;;;;;;;;;;5082927;28;20229;-82
2022/12/11 12:55:22;;;;;;;21.63;14.67;;;;;;;;;;5075309;28;20205;-82
2022/12/11 12:57:52;;;;;;;22.70;14.60;;;;;;;;;;5087873;28;20278;-82
2022/12/11 13:00:33;;;;;;;22.47;14.30;;;;;;;;;;5093930;28;20196;-80
2022/12/11 13:03:02;;;;;;;23.77;15.23;;;;;;;;;;5087146;28;20224;-80
2022/12/11 13:05:31;;;;;;;23.30;14.97;;;;;;;;;;5091742;28;20226;-80
2022/12/11 13:08:01;;;;;;;21.00;14.10;;;;;;;;;;5082673;28;20209;-81
2022/12/11 13:10:30;;;;;;;23.43;14.30;;;;;;;;;;5094849;28;20198;-81
2022/12/11 13:13:00;;;;;;;22.70;14.03;;;;;;;;;;5095037;28;20195;-80
2022/12/11 13:15:32;;;;;;;21.20;13.83;;;;;;;;;;5080606;28;20205;-80
2022/12/11 13:18:00;;;;;;;23.00;14.40;;;;;;;;;;5079523;28;20209;-81
2022/12/11 13:20:29;;;;;;;22.40;14.03;;;;;;;;;;5094202;28;20637;-81
2022/12/11 13:23:09;;;;;;;22.70;14.27;;;;;;;;;;5086912;28;20225;-81
2022/12/11 13:25:46;;;;;;;21.77;13.57;;;;;;;;;;5087361;28;20247;-80
2022/12/11 13:28:23;;;;;;;19.90;13.77;;;;;;;;;;5074754;28;20232;-81
2022/12/11 13:30:58;;;;;;;22.27;14.20;;;;;;;;;;5083748;28;20692;-81
2022/12/11 13:33:26;;;;;;;23.03;14.67;;;;;;;;;;5088695;28;20232;-80
2022/12/11 13:36:16;;;;;;;21.33;14.27;;;;;;;;;;5074368;28;20284;-80
2022/12/11 13:38:46;;;;;;;24.23;14.60;;;;;;;;;;5074344;28;20287;-80
2022/12/11 13:41:14;;;;;;;22.93;14.47;;;;;;;;;;5090700;28;20202;-80
2022/12/11 13:43:47;;;;;;;23.40;14.37;;;;;;;;;;5092311;28;20603;-80
2022/12/11 13:46:15;;;;;;;23.33;14.73;;;;;;;;;;5093776;28;20286;-80
2022/12/11 13:48:46;;;;;;;24.00;14.27;;;;;;;;;;5093886;28;20202;-80
2022/12/11 13:51:16;;;;;;;22.23;13.83;;;;;;;;;;5088646;28;20236;-80
2022/12/11 13:53:44;;;;;;;22.63;14.87;;;;;;;;;;5073985;28;20201;-80
2022/12/11 13:56:16;;;;;;;22.00;13.57;;;;;;;;;;5074166;28;20338;-80
2022/12/11 13:58:45;;;;;;;24.07;14.23;;;;;;;;;;5073516;28;20237;-81
2022/12/11 14:01:14;;;;;;;22.47;14.00;;;;;;;;;;5081629;28;20268;-81
2022/12/11 14:03:48;;;;;;;23.10;14.60;;;;;;;;;;5092531;28;20230;-77
2022/12/11 14:06:15;;;;;;;21.97;13.93;;;;;;;;;;5093396;28;20209;-80
2022/12/11 14:08:45;;;;;;;22.53;14.80;;;;;;;;;;5088325;28;20197;-80
2022/12/11 14:11:16;;;;;;;22.83;14.37;;;;;;;;;;5085820;28;20281;-80
2022/12/11 14:13:46;;;;;;;22.63;14.43;;;;;;;;;;5073918;28;20207;-78
2022/12/11 14:16:20;;;;;;;22.47;14.90;;;;;;;;;;5073711;28;20198;-78
2022/12/11 14:18:49;;;;;;;26.80;15.50;;;;;;;;;;5073036;28;20238;-78
2022/12/11 14:21:19;;;;;;;24.57;15.40;;;;;;;;;;5073457;28;20209;-78
2022/12/11 14:23:51;;;;;;;27.87;16.73;;;;;;;;;;5092488;28;20198;-78
2022/12/11 14:26:20;;;;;;;23.50;15.13;;;;;;;;;;5093125;28;20262;-78
2022/12/11 14:28:49;;;;;;;26.43;15.60;;;;;;;;;;5082902;28;20267;-78
2022/12/11 14:31:17;;;;;;;23.77;15.23;;;;;;;;;;5075256;28;20613;-78
2022/12/11 14:33:47;;;;;;;26.33;16.53;;;;;;;;;;5091045;28;20233;-78
2022/12/11 14:36:14;;;;;;;24.90;15.67;;;;;;;;;;5093665;28;20263;-78
2022/12/11 14:38:44;;;;;;;29.37;17.40;;;;;;;;;;5093813;28;20233;-78
2022/12/11 14:41:14;;;;;;;26.53;16.33;;;;;;;;;;5088620;28;20898;-78
2022/12/11 14:43:46;;;;;;;24.60;16.20;;;;;;;;;;5091623;28;20278;-80
2022/12/11 14:46:17;;;;;;;26.50;15.87;;;;;;;;;;5076110;28;20627;-80